Time,TemperatureF,DewpointF,PressureIn,WindDirection,WindDirectionDegrees,WindSpeedMPH,WindSpeedGustMPH,Humidity,HourlyPrecipIn,Conditions,Clouds,dailyrainin,SoftwareType,DateUTC
2013-05-15 00:14:00,59.5,28.0,29.83,WSW,240,1.0,9.0,30,0.00,,,0.00,weatherlink.com 1.10,2013-05-15 06:14:00,
2013-05-15 00:29:00,59.2,26.0,29.83,SW,223,7.0,7.0,28,0.00,,,0.00,weatherlink.com 1.10,2013-05-15 06:29:00,
2013-05-15 00:44:00,59.2,28.0,29.83,WSW,246,1.0,6.0,30,0.00,,,0.00,weatherlink.com 1.10,2013-05-15 06:44:00,
2013-05-15 00:59:00,57.5,28.0,29.82,WSW,255,0.0,7.0,32,0.00,,,0.00,weatherlink.com 1.10,2013-05-15 06:59:00,
2013-05-15 01:14:00,57.3,29.0,29.82,WSW,245,0.0,8.0,34,0.00,,,0.00,weatherlink.com 1.10,2013-05-15 07:14:00,
2013-05-15 01:29:00,58.3,29.0,29.82,WNW,288,3.0,7.0,33,0.00,,,0.00,weatherlink.com 1.10,2013-05-15 07:29:00,
2013-05-15 01:44:00,59.9,27.0,29.83,WSW,253,2.0,9.0,29,0.00,,,0.00,weatherlink.com 1.10,2013-05-15 07:44:00,
2013-05-15 01:59:00,57.5,28.0,29.83,NE,45,0.0,5.0,33,0.00,,,0.00,weatherlink.com 1.10,2013-05-15 07:59:00,
2013-05-15 02:14:00,54.8,29.0,29.83,West,280,1.0,5.0,38,0.00,,,0.00,weatherlink.com 1.10,2013-05-15 08:14:00,
2013-05-15 02:29:00,55.0,30.0,29.84,SW,222,6.0,6.0,38,0.00,,,0.00,weatherlink.com 1.10,2013-05-15 08:29:00,
2013-05-15 02:44:00,55.7,30.0,29.84,WSW,245,1.0,5.0,37,0.00,,,0.00,weatherlink.com 1.10,2013-05-15 08:44:00,
2013-05-15 02:59:00,56.7,29.0,29.84,SSE,168,0.0,3.0,35,0.00,,,0.00,weatherlink.com 1.10,2013-05-15 08:59:00,
2013-05-15 03:14:00,55.3,30.0,29.84,West,266,2.0,4.0,38,0.00,,,0.00,weatherlink.com 1.10,2013-05-15 09:14:00,
2013-05-15 03:30:00,57.0,29.0,29.84,SW,218,5.0,8.0,34,0.00,,,0.00,weatherlink.com 1.10,2013-05-15 09:30:00,
2013-05-15 03:45:00,55.4,29.0,29.84,West,277,6.0,8.0,36,0.00,,,0.00,weatherlink.com 1.10,2013-05-15 09:45:00,
2013-05-15 04:00:00,54.8,30.0,29.85,West,280,3.0,7.0,39,0.00,,,0.00,weatherlink.com 1.10,2013-05-15 10:00:00,
2013-05-15 04:15:00,54.1,29.0,29.84,West,280,1.0,3.0,38,0.00,,,0.00,weatherlink.com 1.10,2013-05-15 10:15:00,
2013-05-15 04:30:00,54.7,29.0,29.85,SW,236,5.0,7.0,37,0.00,,,0.00,weatherlink.com 1.10,2013-05-15 10:30:00,
2013-05-15 04:45:00,55.4,29.0,29.86,West,263,4.0,8.0,37,0.00,,,0.00,weatherlink.com 1.10,2013-05-15 10:45:00,
2013-05-15 05:01:00,52.8,31.0,29.86,NW,316,2.0,3.0,44,0.00,,,0.00,weatherlink.com 1.10,2013-05-15 11:01:00,
2013-05-15 05:15:00,51.3,31.0,29.86,WSW,246,5.0,5.0,46,0.00,,,0.00,weatherlink.com 1.10,2013-05-15 11:15:00,
2013-05-15 05:30:00,55.0,29.0,29.86,SSW,210,5.0,9.0,37,0.00,,,0.00,weatherlink.com 1.10,2013-05-15 11:30:00,
2013-05-15 05:45:00,57.5,28.0,29.86,SW,222,6.0,12.0,33,0.00,,,0.00,weatherlink.com 1.10,2013-05-15 11:45:00,
2013-05-15 06:00:00,59.0,29.0,29.86,WSW,250,12.0,18.0,32,0.00,,,0.00,weatherlink.com 1.10,2013-05-15 12:00:00,
2013-05-15 06:15:00,59.8,29.0,29.88,SW,219,11.0,16.0,31,0.00,,,0.00,weatherlink.com 1.10,2013-05-15 12:15:00,
2013-05-15 06:45:00,55.4,32.0,29.89,East,91,0.0,7.0,42,0.00,,,0.00,weatherlink.com 1.10,2013-05-15 12:45:00,
2013-05-15 07:00:00,56.3,34.0,29.90,NNW,341,3.0,4.0,44,0.00,,,0.00,weatherlink.com 1.10,2013-05-15 13:00:00,
2013-05-15 07:15:00,56.3,32.0,29.90,NE,46,0.0,6.0,40,0.00,,,0.00,weatherlink.com 1.10,2013-05-15 13:15:00,
2013-05-15 07:30:00,55.3,32.0,29.91,South,189,2.0,5.0,41,0.00,,,0.00,weatherlink.com 1.10,2013-05-15 13:30:00,
2013-05-15 07:45:00,55.9,31.0,29.91,SSW,203,0.0,3.0,39,0.00,,,0.00,weatherlink.com 1.10,2013-05-15 13:45:00,
2013-05-15 08:00:00,56.2,33.0,29.91,ESE,114,3.0,5.0,41,0.00,,,0.00,weatherlink.com 1.10,2013-05-15 14:00:00,
2013-05-15 08:30:00,59.5,32.0,29.90,ESE,114,0.0,3.0,35,0.00,,,0.00,weatherlink.com 1.10,2013-05-15 14:30:00,
2013-05-15 09:00:00,62.9,33.0,29.90,South,181,6.0,7.0,33,0.00,,,0.00,weatherlink.com 1.10,2013-05-15 15:00:00,
2013-05-15 09:15:00,62.7,31.0,29.89,SE,131,9.0,10.0,31,0.00,,,0.00,weatherlink.com 1.10,2013-05-15 15:15:00,
2013-05-15 09:30:00,64.5,32.0,29.89,ESE,112,8.0,8.0,30,0.00,,,0.00,weatherlink.com 1.10,2013-05-15 15:30:00,
2013-05-15 09:45:00,64.0,35.0,29.88,ESE,108,7.0,15.0,34,0.00,,,0.00,weatherlink.com 1.10,2013-05-15 15:45:00,
2013-05-15 10:15:00,65.5,34.0,29.88,East,95,5.0,15.0,31,0.00,,,0.00,weatherlink.com 1.10,2013-05-15 16:15:00,
2013-05-15 10:30:00,66.1,33.0,29.87,East,99,6.0,15.0,29,0.00,,,0.00,weatherlink.com 1.10,2013-05-15 16:30:00,
2013-05-15 10:45:00,66.0,33.0,29.87,ESE,102,10.0,14.0,29,0.00,,,0.00,weatherlink.com 1.10,2013-05-15 16:45:00,
2013-05-15 11:15:00,68.3,33.0,29.86,SE,144,5.0,16.0,27,0.00,,,0.00,weatherlink.com 1.10,2013-05-15 17:15:00,
2013-05-15 11:30:00,69.3,33.0,29.86,SE,126,6.0,15.0,26,0.00,,,0.00,weatherlink.com 1.10,2013-05-15 17:30:00,
2013-05-15 11:45:00,70.3,33.0,29.85,NE,52,4.0,15.0,25,0.00,,,0.00,weatherlink.com 1.10,2013-05-15 17:45:00,
2013-05-15 12:15:00,71.3,35.0,29.83,East,81,9.0,12.0,26,0.00,,,0.00,weatherlink.com 1.10,2013-05-15 18:15:00,
2013-05-15 12:30:00,71.6,35.0,29.83,East,98,7.0,12.0,26,0.00,,,0.00,weatherlink.com 1.10,2013-05-15 18:30:00,
2013-05-15 12:45:00,72.5,34.0,29.82,ESE,115,9.0,11.0,24,0.00,,,0.00,weatherlink.com 1.10,2013-05-15 18:45:00,
2013-05-15 13:01:00,70.6,36.0,29.81,East,82,3.0,10.0,28,0.00,,,0.00,weatherlink.com 1.10,2013-05-15 19:01:00,
2013-05-15 13:16:00,72.1,34.0,29.80,ESE,105,5.0,11.0,25,0.00,,,0.00,weatherlink.com 1.10,2013-05-15 19:16:00,
2013-05-15 13:31:00,73.7,35.0,29.79,SE,128,0.0,11.0,24,0.00,,,0.00,weatherlink.com 1.10,2013-05-15 19:31:00,
2013-05-15 14:01:00,70.9,35.0,29.80,West,277,7.0,24.0,27,0.00,,,0.00,weatherlink.com 1.10,2013-05-15 20:01:00,
2013-05-15 14:31:00,67.6,40.0,29.81,WNW,282,4.0,11.0,37,0.00,,,0.00,weatherlink.com 1.10,2013-05-15 20:31:00,
2013-05-15 14:46:00,66.6,36.0,29.81,SW,223,11.0,29.0,33,0.00,,,0.00,weatherlink.com 1.10,2013-05-15 20:46:00,
2013-05-15 15:01:00,69.8,31.0,29.80,WNW,288,9.0,24.0,24,0.00,,,0.00,weatherlink.com 1.10,2013-05-15 21:01:00,
2013-05-15 15:31:00,70.8,33.0,29.79,WNW,295,11.0,24.0,25,0.00,,,0.00,weatherlink.com 1.10,2013-05-15 21:31:00,
2013-05-15 15:46:00,72.5,33.0,29.77,SW,222,17.0,22.0,23,0.00,,,0.00,weatherlink.com 1.10,2013-05-15 21:46:00,
2013-05-15 16:01:00,73.3,31.0,29.75,SW,224,8.0,19.0,21,0.00,,,0.00,weatherlink.com 1.10,2013-05-15 22:01:00,
2013-05-15 16:16:00,74.6,30.0,29.75,SW,228,13.0,17.0,19,0.00,,,0.00,weatherlink.com 1.10,2013-05-15 22:16:00,
2013-05-15 16:46:00,73.3,31.0,29.75,NNW,332,10.0,13.0,21,0.00,,,0.00,weatherlink.com 1.10,2013-05-15 22:46:00,
2013-05-15 17:01:00,72.8,31.0,29.76,West,278,5.0,9.0,21,0.00,,,0.00,weatherlink.com 1.10,2013-05-15 23:01:00,
2013-05-15 17:31:00,71.6,32.0,29.77,West,272,9.0,12.0,23,0.00,,,0.00,weatherlink.com 1.10,2013-05-15 23:31:00,
2013-05-15 17:46:00,70.1,33.0,29.76,SW,233,20.0,26.0,25,0.00,,,0.00,weatherlink.com 1.10,2013-05-15 23:46:00,
2013-05-15 18:01:00,69.3,32.0,29.77,ENE,73,0.0,15.0,25,0.00,,,0.00,weatherlink.com 1.10,2013-05-16 00:01:00,
2013-05-15 18:16:00,68.9,33.0,29.78,SW,218,27.0,27.0,26,0.00,,,0.00,weatherlink.com 1.10,2013-05-16 00:16:00,
2013-05-15 18:31:00,67.6,33.0,29.79,SW,229,10.0,19.0,28,0.00,,,0.00,weatherlink.com 1.10,2013-05-16 00:31:00,
2013-05-15 18:46:00,66.1,34.0,29.81,South,175,10.0,14.0,31,0.00,,,0.00,weatherlink.com 1.10,2013-05-16 00:46:00,
2013-05-15 19:01:00,65.8,33.0,29.81,South,187,5.0,12.0,30,0.00,,,0.00,weatherlink.com 1.10,2013-05-16 01:01:00,
2013-05-15 19:16:00,63.5,37.0,29.80,SW,214,15.0,33.0,37,0.00,,,0.00,weatherlink.com 1.10,2013-05-16 01:16:00,
2013-05-15 19:46:00,62.3,39.0,29.83,SW,217,12.0,16.0,42,0.00,,,0.00,weatherlink.com 1.10,2013-05-16 01:46:00,
2013-05-15 20:31:00,59.8,40.0,29.81,SW,233,17.0,19.0,48,0.00,,,0.00,weatherlink.com 1.10,2013-05-16 02:31:00,
2013-05-15 20:46:00,61.5,37.0,29.80,WSW,253,17.0,23.0,41,0.00,,,0.00,weatherlink.com 1.10,2013-05-16 02:46:00,
2013-05-15 21:01:00,62.3,36.0,29.79,WSW,249,14.0,28.0,38,0.00,,,0.00,weatherlink.com 1.10,2013-05-16 03:01:00,
2013-05-15 21:31:00,61.8,36.0,29.78,WSW,237,29.0,37.0,38,0.00,,,0.00,weatherlink.com 1.10,2013-05-16 03:31:00,
2013-05-15 21:46:00,62.0,35.0,29.79,WSW,241,10.0,26.0,37,0.00,,,0.00,weatherlink.com 1.10,2013-05-16 03:46:00,
2013-05-15 22:01:00,62.0,36.0,29.83,East,87,6.0,22.0,38,0.00,,,0.00,weatherlink.com 1.10,2013-05-16 04:01:00,
2013-05-15 22:16:00,61.5,36.0,29.82,South,181,1.0,7.0,39,0.00,,,0.00,weatherlink.com 1.10,2013-05-16 04:16:00,
2013-05-15 22:31:00,61.0,36.0,29.82,ESE,119,0.0,8.0,40,0.00,,,0.00,weatherlink.com 1.10,2013-05-16 04:31:00,
2013-05-15 22:46:00,58.1,39.0,29.83,ENE,77,4.0,8.0,50,0.00,,,0.00,weatherlink.com 1.10,2013-05-16 04:46:00,
2013-05-15 23:01:00,56.9,42.0,29.83,NE,41,0.0,3.0,58,0.00,,,0.00,weatherlink.com 1.10,2013-05-16 05:01:00,
2013-05-15 23:16:00,56.0,43.0,29.82,NE,40,3.0,3.0,61,0.00,,,0.00,weatherlink.com 1.10,2013-05-16 05:16:00,
2013-05-15 23:31:00,55.6,43.0,29.82,WNW,287,3.0,3.0,62,0.00,,,0.00,weatherlink.com 1.10,2013-05-16 05:31:00,
2013-05-15 23:46:00,55.0,42.0,29.82,SW,229,1.0,6.0,61,0.00,,,0.00,weatherlink.com 1.10,2013-05-16 05:46:00,